Time;durP1;ratioP1;P1;durP2;ratioP2;P2;SDS_P1;SDS_P2;PMS_P1;PMS_P2;Temp;Humidity;BMP_temperature;BMP_pressure;BME280_temperature;BME280_humidity;BME280_pressure;Samples;Min_cycle;Max_cycle;Signal;HPM_P1;HPM_P2
2024/02/29 00:01:31;;;;;;;11.10;4.40;;;;;;;12.98;51.76;102533.91;110620;1259;22317;-53
2024/02/29 00:03:59;;;;;;;14.40;4.70;;;;;;;13.00;51.74;102536.16;110562;1255;22362;-54
2024/02/29 00:06:26;;;;;;;17.50;5.20;;;;;;;13.01;51.69;102531.27;110497;1258;22277;-54
2024/02/29 00:08:54;;;;;;;12.40;4.60;;;;;;;12.97;51.77;102537.22;110576;1256;22431;-54
2024/02/29 00:11:21;;;;;;;12.10;4.50;;;;;;;12.95;51.93;102537.58;110550;1273;22284;-54
2024/02/29 00:13:50;;;;;;;13.00;5.20;;;;;;;12.97;52.04;102534.77;110279;1260;22195;-53
2024/02/29 00:16:18;;;;;;;9.90;5.10;;;;;;;12.99;52.01;102535.29;110557;1258;22381;-54
2024/02/29 00:18:46;;;;;;;15.10;4.90;;;;;;;12.99;51.99;102535.64;110576;1256;22198;-54
2024/02/29 00:21:13;;;;;;;12.70;5.40;;;;;;;12.96;52.00;102530.95;110546;1259;22453;-54
2024/02/29 00:23:41;;;;;;;12.40;3.80;;;;;;;12.94;52.17;102529.04;110315;1261;23195;-54
2024/02/29 00:26:09;;;;;;;11.00;4.50;;;;;;;12.93;52.14;102528.52;110182;1262;23140;-54
2024/02/29 00:28:36;;;;;;;11.00;4.60;;;;;;;12.92;52.31;102529.91;110556;1256;22289;-54
2024/02/29 00:31:04;;;;;;;8.00;4.60;;;;;;;12.90;52.20;102526.96;110598;1260;22116;-54
2024/02/29 00:33:32;;;;;;;9.30;4.60;;;;;;;12.88;52.44;102529.05;110576;1257;23071;-54
2024/02/29 00:35:59;;;;;;;11.10;4.60;;;;;;;12.89;52.42;102533.23;110254;1260;22149;-54
2024/02/29 00:38:30;;;;;;;12.50;4.50;;;;;;;12.89;52.49;102526.80;110510;1253;22307;-54
2024/02/29 00:40:57;;;;;;;13.40;5.00;;;;;;;12.89;52.54;102531.15;110594;1257;22308;-54
2024/02/29 00:43:25;;;;;;;14.80;5.40;;;;;;;12.88;52.52;102536.38;110557;1257;22122;-54
2024/02/29 00:45:53;;;;;;;12.10;5.00;;;;;;;12.89;52.52;102530.97;110081;1262;22128;-54
2024/02/29 00:48:21;;;;;;;16.10;5.40;;;;;;;12.90;52.49;102531.13;110567;1256;22369;-55
2024/02/29 00:50:48;;;;;;;11.80;4.70;;;;;;;12.91;52.49;102531.14;110603;1258;22342;-54
2024/02/29 00:53:16;;;;;;;13.30;4.90;;;;;;;12.92;52.48;102533.58;110560;1269;22352;-53
2024/02/29 00:55:44;;;;;;;13.00;4.60;;;;;;;12.91;52.48;102528.70;110645;1256;22157;-54
2024/02/29 00:58:12;;;;;;;12.60;5.00;;;;;;;12.92;52.61;102524.00;110530;1256;22301;-54
2024/02/29 01:00:40;;;;;;;9.80;4.70;;;;;;;12.91;52.63;102520.87;110557;1254;23051;-54
2024/02/29 01:03:07;;;;;;;9.90;4.60;;;;;;;12.92;52.67;102518.06;110576;1253;22316;-54
2024/02/29 01:05:35;;;;;;;12.40;5.40;;;;;;;12.94;52.65;102519.47;110573;1256;22140;-54
2024/02/29 01:08:03;;;;;;;17.10;5.40;;;;;;;12.97;52.58;102517.70;110617;1256;22421;-54
2024/02/29 01:10:30;;;;;;;12.90;5.20;;;;;;;12.97;52.59;102515.09;110593;1256;23013;-54
2024/02/29 01:12:58;;;;;;;13.10;4.80;;;;;;;12.95;52.53;102515.45;110610;1270;22392;-54
2024/02/29 01:15:26;;;;;;;11.30;5.10;;;;;;;12.94;52.47;102518.92;109500;1259;1002584;-53
2024/02/29 01:17:53;;;;;;;12.20;5.10;;;;;;;12.96;52.46;102519.98;110657;1256;22314;-54
2024/02/29 01:20:21;;;;;;;9.00;5.10;;;;;;;12.96;52.45;102520.14;110556;1272;22301;-53
2024/02/29 01:22:49;;;;;;;20.90;5.70;;;;;;;12.97;52.50;102521.02;110537;1256;22318;-54
2024/02/29 01:25:16;;;;;;;12.70;5.30;;;;;;;12.97;52.49;102518.75;110576;1270;22155;-53
2024/02/29 01:27:44;;;;;;;12.10;5.20;;;;;;;12.96;52.47;102514.22;110558;1256;23057;-54
2024/02/29 01:30:12;;;;;;;10.70;4.90;;;;;;;12.95;52.50;102510.91;110626;1256;22135;-54
2024/02/29 01:32:39;;;;;;;11.50;5.00;;;;;;;13.02;52.31;102511.41;110578;1256;23019;-53
2024/02/29 01:35:08;;;;;;;11.70;5.20;;;;;;;13.02;52.24;102512.98;110563;1257;22359;-54
2024/02/29 01:37:36;;;;;;;13.80;4.80;;;;;;;13.00;52.21;102516.65;110611;1256;22438;-53
2024/02/29 01:40:04;;;;;;;10.20;4.70;;;;;;;12.98;52.23;102518.23;110627;1256;22315;-54
2024/02/29 01:42:32;;;;;;;9.10;4.80;;;;;;;12.99;52.23;102516.99;110249;1261;22454;-54
2024/02/29 01:44:59;;;;;;;13.40;5.40;;;;;;;13.01;52.14;102516.13;110573;1257;22154;-54
2024/02/29 01:47:27;;;;;;;12.70;5.50;;;;;;;13.01;52.11;102510.55;110593;1257;22107;-54
2024/02/29 01:49:57;;;;;;;9.60;5.50;;;;;;;12.98;52.15;102509.34;109828;1256;1002668;-54
2024/02/29 01:52:26;;;;;;;14.00;6.10;;;;;;;12.94;52.23;102510.23;110662;1256;22786;-53
2024/02/29 01:54:54;;;;;;;10.10;4.90;;;;;;;12.95;52.33;102511.79;110546;1275;22143;-54
2024/02/29 01:57:22;;;;;;;9.60;4.80;;;;;;;12.95;52.25;102506.91;109821;1256;1003178;-54
2024/02/29 01:59:50;;;;;;;14.70;5.70;;;;;;;12.94;52.24;102500.13;110588;1257;22410;-53
2024/02/29 02:02:17;;;;;;;9.50;5.00;;;;;;;12.91;52.32;102497.35;110606;1257;22364;-54
2024/02/29 02:04:45;;;;;;;16.40;5.40;;;;;;;12.89;52.25;102495.95;109854;1256;1002757;-54
2024/02/29 02:07:13;;;;;;;17.70;5.60;;;;;;;12.87;52.31;102495.98;110569;1255;22970;-54
2024/02/29 02:09:42;;;;;;;14.10;5.80;;;;;;;12.85;52.38;102496.67;109822;1267;1002504;-53
2024/02/29 02:12:12;;;;;;;14.20;5.20;;;;;;;12.86;52.33;102493.70;110088;1262;22112;-54
2024/02/29 02:14:40;;;;;;;12.90;5.60;;;;;;;12.88;52.22;102493.88;110571;1259;22816;-53
2024/02/29 02:17:09;;;;;;;10.90;5.10;;;;;;;12.86;52.27;102496.15;110231;1262;22302;-53
2024/02/29 02:19:38;;;;;;;13.10;5.20;;;;;;;12.85;52.28;102494.77;110627;1256;22363;-54
2024/02/29 02:22:05;;;;;;;10.30;4.80;;;;;;;12.85;52.34;102493.36;110527;1256;22423;-54
2024/02/29 02:24:34;;;;;;;10.90;5.50;;;;;;;12.85;52.35;102494.05;110625;1257;22119;-54
2024/02/29 02:27:02;;;;;;;12.30;5.30;;;;;;;12.84;52.35;102498.77;110551;1257;23188;-54
2024/02/29 02:29:29;;;;;;;11.60;4.90;;;;;;;12.84;52.44;102498.94;110578;1256;22145;-54
2024/02/29 02:31:57;;;;;;;16.50;4.50;;;;;;;12.84;52.35;102502.77;110290;1260;22931;-54
2024/02/29 02:34:24;;;;;;;13.20;4.60;;;;;;;12.81;52.47;102502.44;110594;1256;22352;-54
2024/02/29 02:36:52;;;;;;;17.30;5.00;;;;;;;12.79;52.49;102510.80;110606;1260;22343;-54
2024/02/29 02:39:21;;;;;;;10.00;4.60;;;;;;;12.76;52.58;102514.82;110244;1275;22753;-54
2024/02/29 02:41:48;;;;;;;14.90;4.90;;;;;;;12.75;52.59;102515.34;110527;1272;22309;-54
2024/02/29 02:44:16;;;;;;;10.40;4.60;;;;;;;12.75;52.49;102513.79;110317;1260;22311;-54
2024/02/29 02:46:44;;;;;;;13.00;5.10;;;;;;;12.73;52.54;102515.35;110596;1256;22354;-54
2024/02/29 02:49:11;;;;;;;9.70;5.00;;;;;;;12.70;52.50;102519.36;110541;1269;23021;-54
2024/02/29 02:51:40;;;;;;;10.90;4.90;;;;;;;12.71;52.57;102520.92;110643;1257;22347;-54
2024/02/29 02:54:08;;;;;;;11.80;5.00;;;;;;;12.74;52.60;102521.26;110589;1256;22177;-54
2024/02/29 02:56:35;;;;;;;13.30;5.20;;;;;;;12.75;52.58;102515.70;110575;1256;22322;-54
2024/02/29 02:59:03;;;;;;;13.60;4.20;;;;;;;12.77;52.49;102521.08;110614;1257;23047;-54
2024/02/29 03:01:31;;;;;;;11.70;5.10;;;;;;;12.77;52.56;102516.55;110568;1256;22364;-54
2024/02/29 03:03:58;;;;;;;10.10;5.00;;;;;;;12.79;52.52;102516.89;110614;1259;22330;-54
2024/02/29 03:06:26;;;;;;;9.10;4.50;;;;;;;12.79;52.51;102520.73;110294;1270;22189;-54
2024/02/29 03:08:54;;;;;;;14.50;6.10;;;;;;;12.79;52.46;102522.12;110379;1260;22401;-54
2024/02/29 03:11:22;;;;;;;11.60;4.50;;;;;;;12.79;52.35;102520.55;110623;1257;22832;-54
2024/02/29 03:13:49;;;;;;;11.40;4.30;;;;;;;12.80;52.30;102525.25;110539;1267;22404;-53
2024/02/29 03:16:22;;;;;;;9.10;4.40;;;;;;;12.78;52.29;102532.56;110524;1272;22283;-53
2024/02/29 03:18:50;;;;;;;12.40;5.10;;;;;;;12.78;52.29;102530.30;110580;1267;22353;-54
2024/02/29 03:21:18;;;;;;;7.20;4.00;;;;;;;12.74;52.31;102535.55;110539;1261;22422;-55
2024/02/29 03:23:45;;;;;;;11.40;4.50;;;;;;;12.74;52.26;102531.36;110648;1254;22419;-54
2024/02/29 03:26:13;;;;;;;11.00;4.60;;;;;;;12.76;52.22;102528.05;110583;1256;22863;-54
2024/02/29 03:28:41;;;;;;;10.80;4.70;;;;;;;12.76;52.26;102520.39;110597;1274;22140;-53
2024/02/29 03:31:10;;;;;;;12.60;4.90;;;;;;;12.76;52.23;102515.34;110530;1254;22237;-54
2024/02/29 03:33:39;;;;;;;10.90;4.60;;;;;;;12.75;52.12;102511.35;110598;1254;22438;-54
2024/02/29 03:36:08;;;;;;;11.30;4.80;;;;;;;12.73;52.16;102510.30;110565;1266;22235;-54
2024/02/29 03:38:35;;;;;;;10.90;4.60;;;;;;;12.71;52.20;102510.99;110332;1265;22201;-53
2024/02/29 03:41:06;;;;;;;11.30;5.30;;;;;;;12.70;52.29;102511.70;110601;1264;22106;-54
2024/02/29 03:43:34;;;;;;;11.50;5.10;;;;;;;12.67;52.26;102511.71;110568;1256;22315;-54
2024/02/29 03:46:02;;;;;;;12.20;5.00;;;;;;;12.64;52.23;102514.14;110571;1275;22149;-54
2024/02/29 03:48:30;;;;;;;13.70;5.40;;;;;;;12.61;52.26;102511.02;110573;1256;22319;-54
2024/02/29 03:50:58;;;;;;;15.30;4.70;;;;;;;12.58;52.32;102508.06;110603;1264;22779;-54
2024/02/29 03:53:25;;;;;;;9.70;4.40;;;;;;;12.57;52.39;102509.98;110572;1257;22147;-54
2024/02/29 03:55:53;;;;;;;10.10;4.60;;;;;;;12.58;52.42;102503.55;110301;1260;22212;-54
2024/02/29 03:58:21;;;;;;;10.50;4.20;;;;;;;12.58;52.45;102504.58;110534;1275;22142;-54
2024/02/29 04:00:49;;;;;;;10.90;4.70;;;;;;;12.57;52.44;102512.42;110581;1260;22301;-54
2024/02/29 04:03:17;;;;;;;6.50;4.20;;;;;;;12.56;52.49;102515.21;110549;1271;22817;-54
2024/02/29 04:05:44;;;;;;;11.80;4.90;;;;;;;12.56;52.65;102523.91;110414;1261;22387;-54
2024/02/29 04:08:12;;;;;;;14.40;5.70;;;;;;;12.56;52.57;102523.40;110310;1260;23097;-54
2024/02/29 04:10:41;;;;;;;8.00;3.80;;;;;;;12.56;52.62;102526.70;110565;1270;22136;-54
2024/02/29 04:13:09;;;;;;;11.70;4.70;;;;;;;12.56;52.65;102528.09;110583;1260;22349;-54
2024/02/29 04:15:37;;;;;;;13.40;4.30;;;;;;;12.54;52.64;102530.70;110488;1270;22412;-54
2024/02/29 04:18:05;;;;;;;7.70;4.30;;;;;;;12.40;52.89;102532.11;110583;1256;23085;-54
2024/02/29 04:20:32;;;;;;;12.90;4.50;;;;;;;12.26;53.29;102533.35;110551;1267;22357;-54
2024/02/29 04:23:00;;;;;;;10.50;4.40;;;;;;;12.23;53.32;102538.75;110515;1256;22156;-53
2024/02/29 04:25:28;;;;;;;9.80;4.90;;;;;;;12.21;53.39;102541.17;110548;1256;22121;-53
2024/02/29 04:27:55;;;;;;;10.10;5.00;;;;;;;12.39;52.89;102541.00;110610;1257;22392;-54
2024/02/29 04:30:24;;;;;;;11.70;5.10;;;;;;;12.43;52.74;102542.73;110637;1256;22452;-54
2024/02/29 04:32:51;;;;;;;10.30;4.40;;;;;;;12.44;52.80;102540.30;110283;1260;22314;-54
2024/02/29 04:35:19;;;;;;;18.10;5.20;;;;;;;12.45;52.76;102539.60;110593;1257;22371;-54
2024/02/29 04:37:47;;;;;;;8.30;4.70;;;;;;;12.43;52.74;102539.25;110638;1267;22306;-53
2024/02/29 04:40:15;;;;;;;10.00;5.20;;;;;;;12.41;52.71;102540.46;110601;1256;22354;-54
2024/02/29 04:42:42;;;;;;;9.50;4.50;;;;;;;12.40;52.70;102549.00;109798;1257;1002739;-54
2024/02/29 04:45:10;;;;;;;10.00;4.80;;;;;;;12.37;52.73;102547.61;110314;1260;22296;-54
2024/02/29 04:47:38;;;;;;;12.40;4.80;;;;;;;12.37;52.81;102551.97;110626;1257;22380;-54
2024/02/29 04:50:06;;;;;;;17.50;5.70;;;;;;;12.35;52.75;102554.23;110568;1266;22198;-53
2024/02/29 04:52:34;;;;;;;11.90;5.50;;;;;;;12.33;52.91;102559.63;110319;1265;22290;-55
2024/02/29 04:55:02;;;;;;;10.70;5.00;;;;;;;12.34;53.02;102562.59;110583;1275;22835;-54
2024/02/29 04:57:29;;;;;;;10.40;4.80;;;;;;;12.37;52.97;102570.25;110600;1256;22406;-54
2024/02/29 04:59:57;;;;;;;12.40;5.50;;;;;;;12.40;52.86;102575.81;110629;1254;22291;-53
2024/02/29 05:02:25;;;;;;;10.50;5.30;;;;;;;12.43;52.89;102573.54;110475;1254;22371;-53
2024/02/29 05:04:53;;;;;;;11.10;5.10;;;;;;;12.44;52.84;102573.89;110610;1258;22152;-54
2024/02/29 05:07:21;;;;;;;15.50;5.80;;;;;;;12.44;52.73;102574.77;110539;1268;22510;-53
2024/02/29 05:09:48;;;;;;;9.40;5.20;;;;;;;12.44;52.68;102575.28;110579;1254;22372;-54
2024/02/29 05:12:16;;;;;;;12.70;4.90;;;;;;;12.43;52.69;102576.84;110586;1273;22137;-54
2024/02/29 05:14:44;;;;;;;10.40;5.10;;;;;;;12.42;52.59;102573.89;110449;1270;22177;-54
2024/02/29 05:17:11;;;;;;;11.00;5.10;;;;;;;12.41;52.59;102577.02;110332;1260;22349;-53
2024/02/29 05:19:40;;;;;;;10.40;4.80;;;;;;;12.40;52.60;102576.33;110236;1257;22161;-54
2024/02/29 05:22:07;;;;;;;11.30;5.70;;;;;;;12.42;52.63;102574.06;110242;1260;23110;-54
2024/02/29 05:24:35;;;;;;;10.20;4.90;;;;;;;12.43;52.63;102572.49;110581;1257;22302;-54
2024/02/29 05:27:02;;;;;;;9.40;4.30;;;;;;;12.44;52.64;102573.02;110590;1254;22449;-54
2024/02/29 05:29:30;;;;;;;17.90;5.00;;;;;;;12.42;52.53;102575.98;110569;1254;22344;-54
2024/02/29 05:31:58;;;;;;;11.70;4.70;;;;;;;12.42;52.63;102577.73;110538;1269;22409;-54
2024/02/29 05:34:25;;;;;;;12.50;5.30;;;;;;;12.42;52.67;102576.68;109823;1256;1002448;-53
2024/02/29 05:36:53;;;;;;;9.20;4.20;;;;;;;12.43;52.63;102582.41;110303;1260;22775;-53
2024/02/29 05:39:22;;;;;;;12.10;4.90;;;;;;;12.46;52.69;102581.20;110427;1270;22777;-53
2024/02/29 05:41:49;;;;;;;12.40;5.70;;;;;;;12.47;52.58;102585.37;110324;1256;23070;-54
2024/02/29 05:44:18;;;;;;;13.20;4.60;;;;;;;12.48;52.65;102587.83;110659;1254;22124;-54
2024/02/29 05:46:46;;;;;;;11.00;5.00;;;;;;;12.47;52.59;102588.33;110592;1254;22294;-53
2024/02/29 05:49:14;;;;;;;11.60;5.20;;;;;;;12.46;52.56;102593.73;110568;1256;22349;-54
2024/02/29 05:51:42;;;;;;;11.00;5.00;;;;;;;12.44;52.59;102591.48;110522;1273;22347;-54
2024/02/29 05:54:09;;;;;;;11.90;5.30;;;;;;;12.45;52.53;102592.16;110645;1257;22349;-54
2024/02/29 05:56:37;;;;;;;9.80;5.20;;;;;;;12.45;52.55;102596.17;109807;1254;1002130;-54
2024/02/29 05:59:05;;;;;;;11.10;4.20;;;;;;;12.46;52.59;102601.55;110706;1251;22403;-53
2024/02/29 06:01:33;;;;;;;14.30;5.40;;;;;;;12.47;52.49;102594.95;110607;1256;22154;-54
2024/02/29 06:04:01;;;;;;;12.70;6.20;;;;;;;12.46;52.42;102598.09;110532;1273;22316;-53
2024/02/29 06:06:29;;;;;;;16.60;5.60;;;;;;;12.46;52.47;102597.56;110433;1260;23104;-54
2024/02/29 06:08:56;;;;;;;11.00;4.50;;;;;;;12.48;52.57;102593.90;110296;1260;22388;-54
2024/02/29 06:11:24;;;;;;;17.50;6.20;;;;;;;12.49;52.49;102592.86;110564;1251;22422;-53
2024/02/29 06:13:52;;;;;;;12.10;4.90;;;;;;;12.51;52.48;102599.11;110718;1260;22310;-54
2024/02/29 06:16:20;;;;;;;10.60;5.90;;;;;;;12.53;52.42;102600.17;110560;1257;22319;-53
2024/02/29 06:18:48;;;;;;;10.40;5.40;;;;;;;12.53;52.43;102597.20;110523;1254;22239;-54
2024/02/29 06:21:16;;;;;;;12.70;5.70;;;;;;;12.53;52.43;102597.20;110591;1263;23021;-54
2024/02/29 06:23:43;;;;;;;11.60;5.40;;;;;;;12.53;52.36;102600.34;110557;1256;22427;-54
2024/02/29 06:26:11;;;;;;;10.70;5.50;;;;;;;12.54;52.34;102596.85;110600;1267;22140;-53
2024/02/29 06:28:39;;;;;;;11.40;6.00;;;;;;;12.57;52.25;102594.60;110567;1257;22426;-54
2024/02/29 06:31:10;;;;;;;8.10;5.10;;;;;;;12.59;52.23;102597.03;110630;1257;22354;-53
2024/02/29 06:33:38;;;;;;;15.90;5.30;;;;;;;12.59;52.25;102596.15;110292;1256;22740;-54
2024/02/29 06:36:05;;;;;;;10.00;5.50;;;;;;;12.58;52.19;102594.59;110413;1258;23181;-54
2024/02/29 06:38:36;;;;;;;12.30;5.10;;;;;;;12.56;52.18;102593.89;110313;1273;22424;-54
2024/02/29 06:41:10;;;;;;;17.80;6.80;;;;;;;12.55;52.22;102595.98;110501;1270;22908;-53
2024/02/29 06:43:37;;;;;;;14.30;6.00;;;;;;;12.54;52.30;102600.69;110564;1254;22929;-54
2024/02/29 06:46:07;;;;;;;11.40;5.90;;;;;;;12.53;52.23;102601.04;110644;1256;22134;-54
2024/02/29 06:48:35;;;;;;;14.80;7.00;;;;;;;12.51;52.35;102605.74;110578;1266;22899;-54
2024/02/29 06:51:03;;;;;;;10.80;6.00;;;;;;;12.52;52.35;102602.77;110495;1256;22448;-54
2024/02/29 06:53:31;;;;;;;14.40;5.80;;;;;;;12.53;52.25;102606.78;110309;1256;22921;-53
2024/02/29 06:55:59;;;;;;;15.80;7.20;;;;;;;12.54;52.16;102609.04;110614;1258;22408;-54
2024/02/29 06:58:27;;;;;;;13.50;6.20;;;;;;;12.54;52.24;102611.30;110575;1273;22357;-54
2024/02/29 07:00:56;;;;;;;16.60;8.30;;;;;;;12.53;52.13;102606.95;110493;1258;22267;-53
2024/02/29 07:03:24;;;;;;;12.40;6.90;;;;;;;12.52;52.09;102611.13;110580;1254;22376;-53
2024/02/29 07:05:51;;;;;;;12.80;6.90;;;;;;;12.51;52.14;102615.14;110532;1274;22369;-53
2024/02/29 07:08:19;;;;;;;11.20;6.10;;;;;;;12.50;52.10;102611.14;110613;1257;22351;-54
2024/02/29 07:10:48;;;;;;;12.00;6.30;;;;;;;12.51;52.16;102609.05;110448;1269;22773;-53
2024/02/29 07:13:16;;;;;;;16.10;6.80;;;;;;;12.53;52.13;102613.05;109901;1270;1002893;-53
2024/02/29 07:15:44;;;;;;;11.10;6.80;;;;;;;12.55;52.09;102613.75;110549;1270;22378;-53
2024/02/29 07:18:12;;;;;;;9.50;6.30;;;;;;;12.55;51.97;102612.52;110622;1269;22920;-53
2024/02/29 07:20:40;;;;;;;12.00;6.30;;;;;;;12.58;52.01;102613.74;109787;1267;1002469;-53
2024/02/29 07:23:10;;;;;;;13.50;6.80;;;;;;;12.61;51.94;102612.17;110563;1266;22296;-54
2024/02/29 07:25:37;;;;;;;14.20;6.10;;;;;;;12.62;51.76;102613.73;110588;1273;22430;-54
2024/02/29 07:28:08;;;;;;;12.30;6.50;;;;;;;12.60;51.77;102616.18;110428;1266;22866;-54
2024/02/29 07:30:36;;;;;;;13.00;6.40;;;;;;;12.58;51.74;102614.09;110489;1256;22318;-53
2024/02/29 07:33:04;;;;;;;17.40;6.00;;;;;;;12.57;51.81;102615.13;110720;1256;22127;-54
2024/02/29 07:35:33;;;;;;;9.30;5.70;;;;;;;12.60;51.82;102614.59;109813;1257;1002164;-54
2024/02/29 07:38:00;;;;;;;9.60;6.00;;;;;;;12.64;51.76;102613.39;110540;1269;22789;-54
2024/02/29 07:40:28;;;;;;;10.40;6.10;;;;;;;12.66;51.72;102614.60;110574;1269;22122;-54
2024/02/29 07:42:56;;;;;;;12.80;6.70;;;;;;;12.68;51.72;102609.05;110389;1270;22256;-53
2024/02/29 07:45:24;;;;;;;10.30;5.90;;;;;;;12.70;51.54;102610.09;110566;1273;23032;-53
2024/02/29 07:47:51;;;;;;;13.30;5.40;;;;;;;12.72;51.45;102616.70;110595;1273;22288;-54
2024/02/29 07:50:19;;;;;;;10.70;5.60;;;;;;;12.75;51.51;102620.86;110577;1268;22340;-53
2024/02/29 07:52:47;;;;;;;9.30;5.70;;;;;;;12.77;51.39;102620.16;110595;1266;22271;-54
2024/02/29 07:55:16;;;;;;;10.10;5.30;;;;;;;12.77;51.34;102619.83;110559;1256;22242;-53
2024/02/29 07:57:45;;;;;;;9.40;5.00;;;;;;;12.79;51.44;102616.52;110425;1270;22266;-53
2024/02/29 08:00:13;;;;;;;8.60;5.30;;;;;;;12.82;51.29;102615.12;110595;1267;22128;-53
2024/02/29 08:02:42;;;;;;;10.40;5.00;;;;;;;12.83;51.20;102619.46;110378;1266;22126;-54
2024/02/29 08:05:10;;;;;;;8.60;5.50;;;;;;;12.83;51.10;102616.16;110550;1274;22143;-53
2024/02/29 08:07:37;;;;;;;9.40;5.20;;;;;;;12.85;50.96;102618.59;110722;1266;22104;-53
2024/02/29 08:10:06;;;;;;;8.70;5.40;;;;;;;12.87;51.00;102613.02;110568;1266;22386;-54
2024/02/29 08:12:34;;;;;;;11.90;5.30;;;;;;;12.89;50.92;102619.64;110136;1274;22107;-53
2024/02/29 08:15:03;;;;;;;9.50;5.70;;;;;;;12.89;50.92;102614.92;110551;1274;22943;-54
2024/02/29 08:17:31;;;;;;;12.10;6.10;;;;;;;12.90;50.89;102613.35;110575;1267;22188;-54
2024/02/29 08:19:59;;;;;;;8.30;5.00;;;;;;;12.91;50.90;102617.36;110601;1267;22144;-54
2024/02/29 08:22:26;;;;;;;9.30;4.90;;;;;;;12.92;50.83;102619.45;110594;1267;22365;-53
2024/02/29 08:24:54;;;;;;;12.00;5.00;;;;;;;12.94;50.73;102620.66;110393;1272;22350;-53
2024/02/29 08:27:23;;;;;;;8.60;5.00;;;;;;;12.96;50.72;102621.00;110586;1259;22810;-53
2024/02/29 08:29:51;;;;;;;8.00;4.90;;;;;;;12.96;50.63;102621.89;109802;1269;1002917;-54
2024/02/29 08:32:18;;;;;;;15.40;5.90;;;;;;;12.97;50.64;102623.44;109811;1273;1006886;-54
2024/02/29 08:34:46;;;;;;;15.70;6.60;;;;;;;13.01;50.59;102624.31;110561;1273;22308;-53
2024/02/29 08:37:14;;;;;;;11.50;5.40;;;;;;;13.07;50.61;102622.59;110612;1267;22177;-53
2024/02/29 08:39:42;;;;;;;13.70;6.80;;;;;;;13.09;50.65;102617.88;110548;1272;22294;-53
2024/02/29 08:42:09;;;;;;;12.30;7.00;;;;;;;13.12;50.73;102615.42;110566;1271;22304;-53
2024/02/29 08:44:42;;;;;;;17.30;6.70;;;;;;;13.18;50.66;102619.95;109582;1272;1002854;-54
2024/02/29 08:47:09;;;;;;;13.70;7.50;;;;;;;13.23;50.54;102625.86;110690;1266;22383;-53
2024/02/29 08:49:38;;;;;;;14.10;6.50;;;;;;;13.26;50.38;102623.92;109773;1267;1002706;-54
2024/02/29 08:52:07;;;;;;;14.80;6.80;;;;;;;13.30;50.32;102620.42;110461;1270;22150;-54
2024/02/29 08:54:36;;;;;;;15.20;7.80;;;;;;;13.33;50.23;102616.59;110577;1272;22374;-54
2024/02/29 08:57:04;;;;;;;14.10;7.10;;;;;;;13.35;50.15;102620.41;110533;1268;22353;-53
2024/02/29 08:59:32;;;;;;;13.70;6.80;;;;;;;13.37;50.05;102620.23;110389;1273;22903;-53
2024/02/29 09:02:00;;;;;;;15.40;6.70;;;;;;;13.38;50.04;102621.96;109811;1267;1002168;-53
2024/02/29 09:04:29;;;;;;;14.60;7.00;;;;;;;13.38;50.02;102624.06;110541;1273;22401;-54
2024/02/29 09:06:57;;;;;;;12.90;6.80;;;;;;;13.35;49.95;102626.52;110553;1272;22141;-54
2024/02/29 09:09:28;;;;;;;11.70;6.40;;;;;;;13.33;49.95;102625.13;110585;1269;22335;-54
2024/02/29 09:11:56;;;;;;;16.80;7.90;;;;;;;13.34;50.03;102629.30;110598;1269;22971;-53
2024/02/29 09:14:25;;;;;;;10.80;6.30;;;;;;;13.34;50.01;102631.91;110123;1275;22329;-53
2024/02/29 09:16:58;;;;;;;16.10;7.40;;;;;;;13.38;50.06;102626.85;110524;1274;22405;-53
2024/02/29 09:19:26;;;;;;;14.50;7.00;;;;;;;13.41;50.02;102624.58;110160;1273;22333;-54
2024/02/29 09:21:54;;;;;;;16.80;7.00;;;;;;;13.43;49.90;102628.23;110305;1265;22345;-53
2024/02/29 09:24:22;;;;;;;11.80;6.10;;;;;;;13.44;49.83;102629.09;110643;1266;22416;-53
2024/02/29 09:26:50;;;;;;;12.00;6.80;;;;;;;13.42;49.77;102631.37;110595;1273;22362;-55
2024/02/29 09:29:17;;;;;;;11.90;6.30;;;;;;;13.41;49.71;102633.64;110375;1272;22422;-55
2024/02/29 09:31:45;;;;;;;14.40;6.80;;;;;;;13.41;49.62;102629.80;110368;1270;22288;-53
2024/02/29 09:34:13;;;;;;;11.50;6.50;;;;;;;13.40;49.61;102632.06;110581;1267;22360;-54
2024/02/29 09:36:41;;;;;;;14.60;7.70;;;;;;;13.40;49.70;102632.94;110644;1267;23186;-53
2024/02/29 09:39:10;;;;;;;14.60;7.10;;;;;;;13.39;49.70;102629.11;110543;1268;22426;-54
2024/02/29 09:41:38;;;;;;;14.50;6.80;;;;;;;13.37;49.64;102633.83;110300;1267;22375;-54
2024/02/29 09:44:08;;;;;;;12.80;7.20;;;;;;;13.32;49.65;102636.30;109817;1267;1002513;-54
2024/02/29 09:46:36;;;;;;;11.90;5.80;;;;;;;13.32;49.85;102635.77;109754;1269;1003045;-53
2024/02/29 09:49:04;;;;;;;13.30;7.10;;;;;;;13.33;49.79;102637.15;109382;1273;1003122;-53
2024/02/29 09:51:32;;;;;;;15.90;6.90;;;;;;;13.32;49.57;102638.02;110478;1269;22857;-53
2024/02/29 09:53:59;;;;;;;14.00;6.90;;;;;;;13.29;49.65;102637.35;110166;1268;360275;-54
2024/02/29 09:56:28;;;;;;;12.20;6.30;;;;;;;13.29;49.76;102635.43;109740;1270;1002487;-54
2024/02/29 09:58:55;;;;;;;9.60;6.10;;;;;;;13.29;49.78;102633.67;110546;1269;22311;-53
2024/02/29 10:01:23;;;;;;;11.70;7.00;;;;;;;13.28;49.58;102634.56;110578;1266;22733;-53
2024/02/29 10:03:52;;;;;;;12.90;6.70;;;;;;;13.24;49.59;102633.19;110558;1267;22304;-53
2024/02/29 10:06:19;;;;;;;11.50;6.50;;;;;;;13.22;49.64;102635.63;110338;1270;22314;-54
2024/02/29 10:08:47;;;;;;;14.50;7.10;;;;;;;13.21;49.76;102633.88;110645;1266;22799;-53
2024/02/29 10:11:15;;;;;;;15.10;6.70;;;;;;;13.21;49.77;102637.89;109905;1266;1003025;-53
2024/02/29 10:13:42;;;;;;;15.10;6.50;;;;;;;13.23;49.76;102635.27;110533;1253;22181;-54
2024/02/29 10:16:13;;;;;;;13.20;7.20;;;;;;;13.26;49.71;102632.81;110544;1269;23054;-53
2024/02/29 10:18:41;;;;;;;12.30;5.80;;;;;;;13.28;49.66;102635.09;110531;1274;23028;-53
2024/02/29 10:21:13;;;;;;;13.70;6.30;;;;;;;13.30;49.55;102633.33;110637;1267;22933;-53
2024/02/29 10:23:41;;;;;;;9.90;6.10;;;;;;;13.30;49.45;102630.36;109845;1272;1002112;-53
2024/02/29 10:26:09;;;;;;;14.60;6.60;;;;;;;13.28;49.41;102624.98;110394;1267;22430;-53
2024/02/29 10:28:37;;;;;;;13.80;7.70;;;;;;;13.25;49.63;102622.89;110557;1266;22254;-54
2024/02/29 10:31:04;;;;;;;12.30;7.60;;;;;;;13.25;49.74;102622.20;110591;1269;22131;-53
2024/02/29 10:33:37;;;;;;;11.10;6.50;;;;;;;13.25;49.67;102619.92;110447;1270;23034;-54
2024/02/29 10:36:11;;;;;;;11.90;7.00;;;;;;;13.26;49.76;102624.64;110454;1273;23068;-54
2024/02/29 10:38:39;;;;;;;17.40;8.20;;;;;;;13.26;49.71;102620.27;110582;1273;22306;-54
2024/02/29 10:41:07;;;;;;;11.70;6.90;;;;;;;13.26;49.71;102619.92;110537;1269;22366;-54
2024/02/29 10:43:34;;;;;;;14.70;7.10;;;;;;;13.26;49.78;102617.30;110546;1269;22381;-54
2024/02/29 10:46:04;;;;;;;14.20;7.70;;;;;;;13.27;49.84;102611.91;110575;1273;22316;-53
2024/02/29 10:48:36;;;;;;;15.80;8.40;;;;;;;13.22;49.81;102608.79;110691;1266;22342;-53
2024/02/29 10:51:16;;;;;;;12.10;8.20;;;;;;;13.04;50.27;102610.73;110359;1274;22133;-54
2024/02/29 10:53:48;;;;;;;15.70;7.90;;;;;;;13.21;49.98;102609.13;110361;1272;22111;-53
2024/02/29 10:56:23;;;;;;;15.60;7.70;;;;;;;13.27;49.88;102605.10;110592;1269;22792;-53
2024/02/29 10:58:57;;;;;;;12.30;8.20;;;;;;;13.29;49.79;102601.44;110551;1266;22443;-54
2024/02/29 11:01:45;;;;;;;16.90;8.20;;;;;;;13.28;49.71;102599.69;110581;1266;23140;-54
2024/02/29 11:04:16;;;;;;;15.80;8.80;;;;;;;13.28;49.78;102594.98;110052;1273;22167;-53
2024/02/29 11:06:45;;;;;;;13.70;8.00;;;;;;;13.31;49.76;102596.55;110209;1271;23235;-54
2024/02/29 11:09:15;;;;;;;15.60;8.50;;;;;;;13.32;49.64;102595.31;110296;1271;23270;-54
2024/02/29 11:11:45;;;;;;;15.60;7.90;;;;;;;13.30;49.65;102596.02;110327;1272;22177;-54
2024/02/29 11:14:13;;;;;;;16.80;8.50;;;;;;;13.30;49.76;102591.32;110348;1270;23274;-54